Time;durP1;ratioP1;P1;durP2;ratioP2;P2;SDS_P1;SDS_P2;PMS_P1;PMS_P2;Temp;Humidity;BMP_temperature;BMP_pressure;BME280_temperature;BME280_humidity;BME280_pressure;Samples;Min_cycle;Max_cycle;Signal;HPM_P1;HPM_P2
2023/07/17 06:46:58;;;;;;;;;3.67;1.00;;;;;-145.45;100.00;57426.63;5507639;23;45709;-69
2023/07/17 06:49:23;;;;;;;;;2.67;1.00;;;;;-145.45;100.00;57426.63;4912611;28;45431;-69
2023/07/17 06:51:48;;;;;;;;;0.67;0.67;;;;;-145.45;100.00;57426.63;4911972;28;45548;-69
2023/07/17 06:54:13;;;;;;;;;1.67;1.00;;;;;-145.45;100.00;57426.63;4918307;28;44883;-69
2023/07/17 06:56:39;;;;;;;;;3.33;1.00;;;;;-145.45;100.00;57426.63;4916298;28;49743;-69
2023/07/17 06:59:04;;;;;;;;;3.33;1.67;;;;;-145.45;100.00;57426.63;4918147;28;50876;-70
2023/07/17 07:01:29;;;;;;;;;1.00;1.00;;;;;-145.45;100.00;57426.63;4919961;28;45203;-69
2023/07/17 07:03:55;;;;;;;;;1.33;1.33;;;;;-145.45;100.00;57426.63;4916436;28;48521;-69
2023/07/17 07:06:20;;;;;;;;;1.33;1.00;;;;;-145.45;100.00;57426.63;4918026;28;46740;-70
2023/07/17 07:08:46;;;;;;;;;1.00;1.00;;;;;-145.45;100.00;57426.63;4915039;28;46438;-70
2023/07/17 07:11:11;;;;;;;;;1.00;1.00;;;;;-145.45;100.00;57426.63;4921937;28;45271;-71
2023/07/17 07:13:36;;;;;;;;;4.00;2.67;;;;;-145.45;100.00;57426.63;4915410;28;45269;-70
2023/07/17 07:16:02;;;;;;;;;1.00;1.00;;;;;-145.45;100.00;57426.63;4922593;28;45464;-70
2023/07/17 07:18:27;;;;;;;;;1.00;1.00;;;;;-145.45;100.00;57426.63;4922184;28;47048;-70
2023/07/17 07:20:52;;;;;;;;;1.67;1.00;;;;;-145.45;100.00;57426.63;4916790;28;45266;-70
2023/07/17 07:23:18;;;;;;;;;1.33;1.00;;;;;-145.45;100.00;57426.63;4910132;28;45197;-70
2023/07/17 07:25:44;;;;;;;;;3.00;3.00;;;;;-145.45;100.00;57426.63;4923039;28;45376;-70
2023/07/17 07:28:11;;;;;;;;;1.67;1.67;;;;;-145.45;100.00;57426.63;4911594;28;46438;-69
2023/07/17 07:30:37;;;;;;;;;0.67;0.67;;;;;-145.45;100.00;57426.63;4923105;28;45366;-69
2023/07/17 07:33:02;;;;;;;;;2.00;1.00;;;;;-145.45;100.00;57426.63;4919676;28;45408;-69
2023/07/17 07:35:27;;;;;;;;;2.00;2.00;;;;;-145.45;100.00;57426.63;4918660;28;46015;-69
2023/07/17 07:37:54;;;;;;;;;2.00;2.00;;;;;-145.45;100.00;57426.63;4908726;28;45314;-69
2023/07/17 07:40:19;;;;;;;;;1.25;1.00;;;;;-145.45;100.00;57426.63;4919719;28;45905;-69
2023/07/17 07:42:45;;;;;;;;;2.00;1.25;;;;;-145.45;100.00;57426.63;4918952;28;45370;-70
2023/07/17 07:45:11;;;;;;;;;1.00;1.00;;;;;-145.45;100.00;57426.63;4921281;28;45472;-70
2023/07/17 07:47:38;;;;;;;;;1.75;1.75;;;;;-145.45;100.00;57426.63;4920455;28;47441;-68
2023/07/17 07:50:04;;;;;;;;;5.25;1.00;;;;;-145.45;100.00;57426.63;4916376;28;45283;-70
2023/07/17 07:52:30;;;;;;;;;0.75;0.50;;;;;-145.45;100.00;57426.63;4918273;28;45456;-69
2023/07/17 07:54:55;;;;;;;;;2.25;2.25;;;;;-145.45;100.00;57426.63;4920691;28;45461;-68
2023/07/17 07:57:21;;;;;;;;;1.50;1.50;;;;;-145.45;100.00;57426.63;4918574;28;45423;-69
2023/07/17 07:59:47;;;;;;;;;3.00;1.50;;;;;-145.45;100.00;57426.63;4916897;28;45385;-70
2023/07/17 08:02:13;;;;;;;;;2.75;1.25;;;;;-145.45;100.00;57426.63;4915571;28;45385;-69
2023/07/17 08:04:38;;;;;;;;;2.00;2.00;;;;;-145.45;100.00;57426.63;4917169;28;45530;-69
2023/07/17 08:07:04;;;;;;;;;2.50;2.00;;;;;-145.45;100.00;57426.63;4916016;28;45453;-69
2023/07/17 08:09:29;;;;;;;;;3.00;2.50;;;;;-145.45;100.00;57426.63;4916784;28;45377;-69
2023/07/17 08:11:55;;;;;;;;;2.75;1.75;;;;;-145.45;100.00;57426.63;4918803;28;45327;-69
2023/07/17 08:14:23;;;;;;;;;1.50;1.00;;;;;-145.45;100.00;57426.63;4917440;28;45219;-70
2023/07/17 08:16:49;;;;;;;;;3.25;2.00;;;;;-145.45;100.00;57426.63;4920372;28;45485;-70
2023/07/17 08:19:16;;;;;;;;;2.00;2.00;;;;;-145.45;100.00;57426.63;4918839;28;45419;-69
2023/07/17 08:21:42;;;;;;;;;1.75;1.75;;;;;-145.45;100.00;57426.63;4921602;28;45287;-70
2023/07/17 08:24:07;;;;;;;;;3.00;3.00;;;;;-145.45;100.00;57426.63;4914837;28;45420;-69
2023/07/17 08:26:33;;;;;;;;;0.75;0.00;;;;;-145.45;100.00;57426.63;4920281;28;47682;-69
2023/07/17 08:29:00;;;;;;;;;2.00;2.00;;;;;-145.45;100.00;57426.63;4916208;28;45262;-69
2023/07/17 08:31:26;;;;;;;;;1.00;0.00;;;;;-145.45;100.00;57426.63;4919244;28;45454;-69
2023/07/17 08:33:51;;;;;;;;;1.50;1.00;;;;;-145.45;100.00;57426.63;4920585;28;46599;-69
2023/07/17 08:36:17;;;;;;;;;3.25;1.25;;;;;-145.45;100.00;57426.63;4919472;28;45357;-69
2023/07/17 08:38:42;;;;;;;;;1.00;1.00;;;;;-145.45;100.00;57426.63;4912874;28;45264;-69
2023/07/17 08:41:08;;;;;;;;;3.00;2.00;;;;;-145.45;100.00;57426.63;4921579;28;45416;-69
2023/07/17 08:43:35;;;;;;;;;1.25;1.25;;;;;-145.45;100.00;57426.63;4915223;28;46689;-70
2023/07/17 08:46:01;;;;;;;;;4.00;2.00;;;;;-145.45;100.00;57426.63;4919084;28;45482;-70
2023/07/17 08:48:29;;;;;;;;;1.75;1.00;;;;;-145.45;100.00;57426.63;4916377;28;45315;-71
2023/07/17 08:50:56;;;;;;;;;1.25;0.50;;;;;-145.45;100.00;57426.63;4921817;28;45457;-70
2023/07/17 08:53:25;;;;;;;;;3.00;1.75;;;;;-145.45;100.00;57426.63;4912715;28;45397;-70
2023/07/17 08:55:53;;;;;;;;;2.00;1.25;;;;;-145.45;100.00;57426.63;4919365;28;45714;-69
2023/07/17 08:58:22;;;;;;;;;0.20;0.20;;;;;-145.45;100.00;57426.63;4910754;28;45234;-68
2023/07/17 09:00:50;;;;;;;;;1.00;1.00;;;;;-145.45;100.00;57426.63;4919899;28;45291;-69
2023/07/17 09:03:15;;;;;;;;;1.00;1.00;;;;;-145.45;100.00;57426.63;4909288;28;45458;-70
2023/07/17 09:05:42;;;;;;;;;2.00;2.00;;;;;-145.45;100.00;57426.63;4920256;28;47060;-69
2023/07/17 09:08:08;;;;;;;;;1.00;1.00;;;;;-145.45;100.00;57426.63;4919472;28;45371;-69
2023/07/17 09:10:35;;;;;;;;;0.75;0.75;;;;;-145.45;100.00;57426.63;4921544;28;45347;-69
2023/07/17 09:13:01;;;;;;;;;1.00;1.00;;;;;-145.45;100.00;57426.63;4916742;28;45654;-69
2023/07/17 09:15:31;;;;;;;;;1.00;0.00;;;;;-145.45;100.00;57426.63;4913859;28;46993;-68
2023/07/17 09:17:56;;;;;;;;;2.60;1.20;;;;;-145.45;100.00;57426.63;4915972;28;45365;-69
2023/07/17 09:20:22;;;;;;;;;1.25;1.25;;;;;-145.45;100.00;57426.63;4914030;28;45332;-70
2023/07/17 09:22:48;;;;;;;;;3.50;1.75;;;;;-145.45;100.00;57426.63;4918955;28;45511;-68
2023/07/17 09:25:15;;;;;;;;;3.00;0.20;;;;;-145.45;100.00;57426.63;4914325;28;46784;-68
2023/07/17 09:27:45;;;;;;;;;0.80;0.80;;;;;-145.45;100.00;57426.63;4919990;28;45243;-69
2023/07/17 09:30:12;;;;;;;;;0.00;0.00;;;;;-145.45;100.00;57426.63;4915172;28;45341;-69
2023/07/17 09:32:38;;;;;;;;;1.80;1.40;;;;;-145.45;100.00;57426.63;4918257;28;45491;-69
2023/07/17 09:35:06;;;;;;;;;0.50;0.50;;;;;-145.45;100.00;57426.63;4919436;28;45573;-68
2023/07/17 09:37:33;;;;;;;;;1.00;1.00;;;;;-145.45;100.00;57426.63;4914097;28;45415;-69
2023/07/17 09:40:01;;;;;;;;;3.40;0.80;;;;;-145.45;100.00;57426.63;4934231;28;45267;-69
2023/07/17 09:42:26;;;;;;;;;1.00;0.80;;;;;-145.45;100.00;57426.63;4911900;28;45587;-70
2023/07/17 09:44:52;;;;;;;;;1.25;0.25;;;;;-145.45;100.00;57426.63;4916677;28;45330;-69
2023/07/17 09:47:21;;;;;;;;;1.00;1.00;;;;;-145.45;100.00;57426.63;4913127;28;45340;-69
2023/07/17 09:49:50;;;;;;;;;1.80;1.80;;;;;-145.45;100.00;57426.63;4918467;28;45309;-69
2023/07/17 09:52:16;;;;;;;;;2.20;1.20;;;;;-145.45;100.00;57426.63;4914590;28;45586;-68
2023/07/17 09:54:42;;;;;;;;;2.00;1.25;;;;;-145.45;100.00;57426.63;4920209;28;46488;-69
2023/07/17 09:57:09;;;;;;;;;1.40;1.40;;;;;-145.45;100.00;57426.63;4915673;28;45538;-69
2023/07/17 09:59:40;;;;;;;;;1.20;1.20;;;;;-145.45;100.00;57426.63;4912554;28;45330;-69
2023/07/17 10:02:15;;;;;;;;;1.40;0.80;;;;;-145.45;100.00;57426.63;4916029;28;45439;-69
2023/07/17 10:04:49;;;;;;;;;0.60;0.60;;;;;-145.45;100.00;57426.63;4913658;28;46611;-69
2023/07/17 10:07:16;;;;;;;;;1.00;1.00;;;;;-145.45;100.00;57426.63;4917896;28;45483;-69
2023/07/17 10:09:43;;;;;;;;;2.20;0.00;;;;;-145.45;100.00;57426.63;4913640;28;45381;-70
2023/07/17 10:12:10;;;;;;;;;0.60;0.60;;;;;-145.45;100.00;57426.63;4917979;28;45408;-69
2023/07/17 10:14:36;;;;;;;;;1.60;1.00;;;;;-145.45;100.00;57426.63;4914478;28;45273;-70
2023/07/17 10:17:01;;;;;;;;;0.00;0.00;;;;;-145.45;100.00;57426.63;4919541;28;45239;-70
2023/07/17 10:19:43;;;;;;;;;2.25;0.00;;;;;-145.45;100.00;57426.63;4915825;28;45245;-69
2023/07/17 10:22:13;;;;;;;;;1.20;1.20;;;;;-145.45;100.00;57426.63;4916954;28;45603;-69
2023/07/17 10:24:40;;;;;;;;;1.40;0.80;;;;;-145.45;100.00;57426.63;4919766;28;46335;-68
2023/07/17 10:27:06;;;;;;;;;5.20;0.80;;;;;-145.45;100.00;57426.63;4920399;28;45389;-69
2023/07/17 10:29:40;;;;;;;;;0.00;0.00;;;;;-145.45;100.00;57426.63;4921356;28;45367;-68
2023/07/17 10:32:13;;;;;;;;;0.00;0.00;;;;;-145.45;100.00;57426.63;4920806;28;45476;-69
2023/07/17 10:34:52;;;;;;;;;0.80;0.80;;;;;-145.45;100.00;57426.63;4922105;28;46862;-67
2023/07/17 10:37:30;;;;;;;;;0.60;0.00;;;;;-145.45;100.00;57426.63;4922810;28;45461;-67
2023/07/17 10:40:07;;;;;;;;;1.00;1.00;;;;;-145.45;100.00;57426.63;4919609;28;45328;-68
2023/07/17 10:42:33;;;;;;;;;0.20;0.20;;;;;-145.45;100.00;57426.63;4908519;28;45516;-68
2023/07/17 10:45:09;;;;;;;;;0.75;0.75;;;;;-145.45;100.00;57426.63;4918707;28;45535;-67
2023/07/17 10:47:34;;;;;;;;;0.00;0.00;;;;;-145.45;100.00;57426.63;4913436;28;45363;-67
2023/07/17 10:50:03;;;;;;;;;1.00;0.00;;;;;-145.45;100.00;57426.63;4920459;28;45172;-67
2023/07/17 10:52:34;;;;;;;;;2.00;0.00;;;;;-145.45;100.00;57426.63;4914631;28;45352;-68
2023/07/17 10:55:04;;;;;;;;;1.40;0.80;;;;;-145.45;100.00;57426.63;4924129;28;45437;-68
2023/07/17 10:57:30;;;;;;;;;0.00;0.00;;;;;-145.45;100.00;57426.63;4918197;28;45358;-68
2023/07/17 10:59:56;;;;;;;;;0.75;0.75;;;;;-145.45;100.00;57426.63;4914785;28;45421;-68
2023/07/17 11:02:25;;;;;;;;;1.00;0.00;;;;;-145.45;100.00;57426.63;4918206;28;45176;-68
2023/07/17 11:04:55;;;;;;;;;0.40;0.40;;;;;-145.45;100.00;57426.63;4915582;28;46097;-68
2023/07/17 11:07:20;;;;;;;;;1.00;0.00;;;;;-145.45;100.00;57426.63;4916841;28;45472;-69
2023/07/17 11:09:45;;;;;;;;;0.00;0.00;;;;;-145.45;100.00;57426.63;4916310;28;45232;-68
2023/07/17 11:12:11;;;;;;;;;0.25;0.25;;;;;-145.45;100.00;57426.63;4921775;28;45297;-69
2023/07/17 11:14:36;;;;;;;;;4.00;1.25;;;;;-145.45;100.00;57426.63;4917097;28;45362;-70
2023/07/17 11:17:01;;;;;;;;;0.00;0.00;;;;;-145.45;100.00;57426.63;4922353;28;45334;-69
2023/07/17 11:19:27;;;;;;;;;0.50;0.50;;;;;-145.45;100.00;57426.63;4918628;28;45350;-68
2023/07/17 11:21:55;;;;;;;;;1.25;0.25;;;;;-145.45;100.00;57426.63;4918964;28;49425;-69
2023/07/17 11:24:20;;;;;;;;;0.00;0.00;;;;;-145.45;100.00;57426.63;4914151;28;45691;-69
2023/07/17 11:26:46;;;;;;;;;0.25;0.25;;;;;-145.45;100.00;57426.63;4920059;28;45430;-68
2023/07/17 11:29:12;;;;;;;;;0.50;0.50;;;;;-145.45;100.00;57426.63;4917420;28;45297;-69
2023/07/17 11:31:37;;;;;;;;;0.00;0.00;;;;;-145.45;100.00;57426.63;4918627;28;45403;-68
2023/07/17 11:34:07;;;;;;;;;1.00;0.00;;;;;-145.45;100.00;57426.63;4916663;28;45454;-70
2023/07/17 11:36:42;;;;;;;;;1.80;0.80;;;;;-145.45;100.00;57426.63;4920634;28;45435;-68
2023/07/17 11:39:31;;;;;;;;;2.80;1.20;;;;;-145.45;100.00;57426.63;4918907;28;45302;-69
2023/07/17 11:41:58;;;;;;;;;0.20;0.20;;;;;-145.45;100.00;57426.63;4916987;28;46710;-69
2023/07/17 11:44:24;;;;;;;;;1.00;0.00;;;;;-145.45;100.00;57426.63;4919101;28;46645;-69
2023/07/17 11:47:03;;;;;;;;;1.00;0.00;;;;;-145.45;100.00;57426.63;4920007;28;45294;-68
2023/07/17 11:49:29;;;;;;;;;1.60;0.00;;;;;-145.45;100.00;57426.63;4914169;28;45437;-69
2023/07/17 11:51:56;;;;;;;;;0.20;0.00;;;;;-145.45;100.00;57426.63;4915973;28;47196;-69
2023/07/17 11:54:21;;;;;;;;;0.00;0.00;;;;;-145.45;100.00;57426.63;4922136;28;46466;-70
2023/07/17 11:56:47;;;;;;;;;0.00;0.00;;;;;-145.45;100.00;57426.63;4917464;28;45428;-69
2023/07/17 11:59:20;;;;;;;;;0.25;0.00;;;;;-145.45;100.00;57426.63;4921670;28;45307;-69
2023/07/17 12:01:46;;;;;;;;;0.80;0.80;;;;;-145.45;100.00;57426.63;4911336;28;45859;-69
2023/07/17 12:04:28;;;;;;;;;0.00;0.00;;;;;-145.45;100.00;57426.63;4918372;28;45568;-69
2023/07/17 12:06:55;;;;;;;;;0.00;0.00;;;;;-145.45;100.00;57426.63;4919574;28;45480;-69
2023/07/17 12:09:20;;;;;;;;;0.00;0.00;;;;;-145.45;100.00;57426.63;4917500;28;45462;-70
2023/07/17 12:11:46;;;;;;;;;0.50;0.50;;;;;-145.45;100.00;57426.63;4922280;28;45271;-70
2023/07/17 12:14:15;;;;;;;;;0.50;0.50;;;;;-145.45;100.00;57426.63;4916641;28;46231;-70
2023/07/17 12:16:41;;;;;;;;;0.20;0.00;;;;;-145.45;100.00;57426.63;4915371;28;45355;-70
2023/07/17 12:19:06;;;;;;;;;0.00;0.00;;;;;-145.45;100.00;57426.63;4917378;28;45501;-70
2023/07/17 12:21:32;;;;;;;;;0.00;0.00;;;;;-145.45;100.00;57426.63;4922140;28;45475;-70
2023/07/17 12:23:57;;;;;;;;;1.25;0.00;;;;;-145.45;100.00;57426.63;4916870;28;45605;-70
2023/07/17 12:26:23;;;;;;;;;0.00;0.00;;;;;-145.45;100.00;57426.63;4920835;28;45412;-70
2023/07/17 12:28:48;;;;;;;;;1.00;0.00;;;;;-145.45;100.00;57426.63;4917464;28;45395;-69
2023/07/17 12:31:13;;;;;;;;;0.00;0.00;;;;;-145.45;100.00;57426.63;4921433;28;45552;-69
2023/07/17 12:33:39;;;;;;;;;0.25;0.00;;;;;-145.45;100.00;57426.63;4914298;28;45456;-70
2023/07/17 12:36:04;;;;;;;;;0.00;0.00;;;;;-145.45;100.00;57426.63;4921349;28;52341;-69
2023/07/17 12:38:29;;;;;;;;;0.00;0.00;;;;;-145.45;100.00;57426.63;4910245;28;45452;-69
2023/07/17 12:40:55;;;;;;;;;0.75;0.75;;;;;-145.45;100.00;57426.63;4920831;28;50300;-69
2023/07/17 12:43:20;;;;;;;;;0.00;0.00;;;;;-145.45;100.00;57426.63;4912797;28;47367;-70
2023/07/17 12:45:45;;;;;;;;;0.00;0.00;;;;;-145.45;100.00;57426.63;4919908;28;45335;-71
2023/07/17 12:48:11;;;;;;;;;0.00;0.00;;;;;-145.45;100.00;57426.63;4914453;28;45279;-71
2023/07/17 12:50:37;;;;;;;;;0.25;0.00;;;;;-145.45;100.00;57426.63;4915513;28;45577;-71
2023/07/17 12:53:03;;;;;;;;;0.20;0.20;;;;;-145.45;100.00;57426.63;4912696;28;46516;-72
2023/07/17 12:55:29;;;;;;;;;0.00;0.00;;;;;-145.45;100.00;57426.63;4923390;28;45360;-70
2023/07/17 12:57:54;;;;;;;;;0.00;0.00;;;;;-145.45;100.00;57426.63;4916438;28;45301;-69
2023/07/17 13:00:20;;;;;;;;;0.00;0.00;;;;;-145.45;100.00;57426.63;4915993;28;45347;-69
2023/07/17 13:02:45;;;;;;;;;0.00;0.00;;;;;-145.45;100.00;57426.63;4918229;28;47278;-69
2023/07/17 13:05:12;;;;;;;;;0.00;0.00;;;;;-145.45;100.00;57426.63;4918983;28;45236;-70
2023/07/17 13:07:37;;;;;;;;;0.00;0.00;;;;;-145.45;100.00;57426.63;4913581;28;45243;-70
2023/07/17 13:10:04;;;;;;;;;0.50;0.50;;;;;-145.45;100.00;57426.63;4920630;28;45658;-69
2023/07/17 13:12:29;;;;;;;;;0.00;0.00;;;;;-145.45;100.00;57426.63;4916491;28;45402;-70
2023/07/17 13:14:54;;;;;;;;;0.00;0.00;;;;;-145.45;100.00;57426.63;4921328;28;45247;-69
2023/07/17 13:17:20;;;;;;;;;0.00;0.00;;;;;-145.45;100.00;57426.63;4916844;28;45480;-70
2023/07/17 13:19:46;;;;;;;;;0.00;0.00;;;;;-145.45;100.00;57426.63;4920614;28;45275;-70
2023/07/17 13:22:12;;;;;;;;;0.20;0.20;;;;;-145.45;100.00;57426.63;4917186;28;46259;-69
2023/07/17 13:24:38;;;;;;;;;0.00;0.00;;;;;-145.45;100.00;57426.63;4915255;28;45294;-68
2023/07/17 13:27:04;;;;;;;;;1.00;0.00;;;;;-145.45;100.00;57426.63;4919866;28;45366;-69
2023/07/17 13:29:29;;;;;;;;;0.00;0.00;;;;;-145.45;100.00;57426.63;4916323;28;45342;-70
2023/07/17 13:31:59;;;;;;;;;0.00;0.00;;;;;-145.45;100.00;57426.63;4918842;28;46254;-69
2023/07/17 13:34:26;;;;;;;;;0.00;0.00;;;;;-145.45;100.00;57426.63;4914772;28;45167;-69
2023/07/17 13:36:51;;;;;;;;;0.80;0.00;;;;;-145.45;100.00;57426.63;4920210;28;45702;-70
2023/07/17 13:39:16;;;;;;;;;0.00;0.00;;;;;-145.45;100.00;57426.63;4916932;28;46069;-70
2023/07/17 13:41:47;;;;;;;;;0.00;0.00;;;;;-145.45;100.00;57426.63;4920597;28;52697;-70
2023/07/17 13:44:14;;;;;;;;;0.00;0.00;;;;;-145.45;100.00;57426.63;4917064;28;45241;-70
2023/07/17 13:46:41;;;;;;;;;0.00;0.00;;;;;-145.45;100.00;57426.63;4914743;28;45350;-69
2023/07/17 13:49:07;;;;;;;;;0.00;0.00;;;;;-145.45;100.00;57426.63;4915238;28;45461;-70
2023/07/17 13:51:33;;;;;;;;;0.00;0.00;;;;;-145.45;100.00;57426.63;4918841;28;46319;-71
2023/07/17 13:53:58;;;;;;;;;0.00;0.00;;;;;-145.45;100.00;57426.63;4916801;28;45385;-70
2023/07/17 13:56:24;;;;;;;;;0.50;0.00;;;;;-145.45;100.00;57426.63;4922311;28;45437;-70
2023/07/17 13:58:49;;;;;;;;;0.00;0.00;;;;;-145.45;100.00;57426.63;4918831;28;45481;-70
2023/07/17 14:01:14;;;;;;;;;0.00;0.00;;;;;-145.45;100.00;57426.63;4921178;28;45575;-71
2023/07/17 14:03:40;;;;;;;;;0.25;0.25;;;;;-145.45;100.00;57426.63;4910923;28;46968;-71
2023/07/17 14:06:05;;;;;;;;;0.25;0.25;;;;;-145.45;100.00;57426.63;4925748;28;45365;-70
2023/07/17 14:08:31;;;;;;;;;0.00;0.00;;;;;-145.45;100.00;57426.63;4917228;28;45394;-70
2023/07/17 14:10:56;;;;;;;;;0.75;0.75;;;;;-145.45;100.00;57426.63;4926013;28;45345;-70
2023/07/17 14:13:21;;;;;;;;;0.00;0.00;;;;;-145.45;100.00;57426.63;4923357;28;45387;-71
2023/07/17 14:15:47;;;;;;;;;0.25;0.25;;;;;-145.45;100.00;57426.63;4923910;28;47226;-70
2023/07/17 14:18:12;;;;;;;;;0.00;0.00;;;;;-145.45;100.00;57426.63;4924125;28;45322;-71
2023/07/17 14:20:37;;;;;;;;;0.00;0.00;;;;;-145.45;100.00;57426.63;4924574;28;46137;-71
2023/07/17 14:23:03;;;;;;;;;1.50;1.50;;;;;-145.45;100.00;57426.63;4922700;28;45326;-70
2023/07/17 14:25:30;;;;;;;;;0.75;0.75;;;;;-145.45;100.00;57426.63;4924391;28;45520;-70
2023/07/17 14:27:56;;;;;;;;;5.00;2.00;;;;;-145.45;100.00;57426.63;4917932;28;46857;-70
2023/07/17 14:30:21;;;;;;;;;2.00;2.00;;;;;-145.45;100.00;57426.63;4924534;28;46922;-71
2023/07/17 14:32:46;;;;;;;;;1.75;1.75;;;;;-145.45;100.00;57426.63;4920829;28;45335;-71
2023/07/17 14:35:12;;;;;;;;;3.00;1.75;;;;;-145.45;100.00;57426.63;4923239;28;45263;-70
2023/07/17 14:37:38;;;;;;;;;1.25;1.25;;;;;-145.45;100.00;57426.63;4921068;28;45865;-71
2023/07/17 14:40:04;;;;;;;;;1.25;1.25;;;;;-145.45;100.00;57426.63;4925483;28;47353;-74
2023/07/17 14:42:29;;;;;;;;;4.00;2.60;;;;;-145.45;100.00;57426.63;4923949;28;45359;-70
2023/07/17 14:44:55;;;;;;;;;3.75;2.25;;;;;-145.45;100.00;57426.63;4924812;28;45470;-71
2023/07/17 14:47:21;;;;;;;;;1.25;1.25;;;;;-145.45;100.00;57426.63;4924502;28;48468;-71
2023/07/17 14:49:46;;;;;;;;;2.80;2.80;;;;;-145.45;100.00;57426.63;4919608;28;45736;-70
2023/07/17 14:52:12;;;;;;;;;5.00;3.25;;;;;-145.45;100.00;57426.63;4925555;28;45227;-70
2023/07/17 14:54:37;;;;;;;;;3.75;2.00;;;;;-145.45;100.00;57426.63;4928072;28;45207;-71
2023/07/17 14:57:02;;;;;;;;;2.00;2.00;;;;;-145.45;100.00;57426.63;4920512;28;51837;-71
2023/07/17 14:59:28;;;;;;;;;1.25;1.25;;;;;-145.45;100.00;57426.63;4917871;28;45376;-71
2023/07/17 15:01:53;;;;;;;;;1.00;1.00;;;;;-145.45;100.00;57426.63;4921889;28;45266;-71
2023/07/17 15:04:18;;;;;;;;;3.25;3.00;;;;;-145.45;100.00;57426.63;4917847;28;45497;-70
2023/07/17 15:06:44;;;;;;;;;1.00;1.00;;;;;-145.45;100.00;57426.63;4917414;28;45637;-70
2023/07/17 15:09:09;;;;;;;;;2.00;2.00;;;;;-145.45;100.00;57426.63;4915681;28;45775;-70
2023/07/17 15:11:34;;;;;;;;;0.25;0.25;;;;;-145.45;100.00;57426.63;4922354;28;45968;-70
2023/07/17 15:14:00;;;;;;;;;1.00;1.00;;;;;-145.45;100.00;57426.63;4918000;28;45238;-70
2023/07/17 15:16:25;;;;;;;;;2.00;1.50;;;;;-145.45;100.00;57426.63;4921185;28;45599;-73
2023/07/17 15:18:50;;;;;;;;;0.00;0.00;;;;;-145.45;100.00;57426.63;4912694;28;46199;-72
2023/07/17 15:21:16;;;;;;;;;0.75;0.75;;;;;-145.45;100.00;57426.63;4921809;28;45232;-72
2023/07/17 15:23:41;;;;;;;;;1.50;1.00;;;;;-145.45;100.00;57426.63;4912694;28;45431;-71
2023/07/17 15:26:06;;;;;;;;;1.00;0.00;;;;;-145.45;100.00;57426.63;4920192;28;45533;-70
2023/07/17 15:28:32;;;;;;;;;0.00;0.00;;;;;-145.45;100.00;57426.63;4916349;28;46331;-70
2023/07/17 15:30:57;;;;;;;;;0.00;0.00;;;;;-145.45;100.00;57426.63;4919838;28;45349;-70
2023/07/17 15:33:25;;;;;;;;;0.00;0.00;;;;;-145.45;100.00;57426.63;4921762;28;45554;-70
2023/07/17 15:35:51;;;;;;;;;0.40;0.40;;;;;-145.45;100.00;57426.63;4922279;28;45407;-71
2023/07/17 15:38:16;;;;;;;;;7.20;4.80;;;;;-145.45;100.00;57426.63;4917383;28;47138;-71
2023/07/17 15:40:42;;;;;;;;;19.00;14.50;;;;;-145.45;100.00;57426.63;4920796;28;45961;-71
2023/07/17 15:43:07;;;;;;;;;3.25;3.25;;;;;-145.45;100.00;57426.63;4918468;28;45172;-71
2023/07/17 15:45:32;;;;;;;;;0.00;0.00;;;;;-145.45;100.00;57426.63;4922135;28;45235;-71
2023/07/17 15:47:58;;;;;;;;;0.00;0.00;;;;;-145.45;100.00;57426.63;4919444;28;45966;-70
2023/07/17 15:50:23;;;;;;;;;0.00;0.00;;;;;-145.45;100.00;57426.63;4918240;28;47244;-70
2023/07/17 15:52:49;;;;;;;;;0.25;0.25;;;;;-145.45;100.00;57426.63;4913917;28;45260;-70
2023/07/17 15:55:14;;;;;;;;;0.25;0.25;;;;;-145.45;100.00;57426.63;4923344;28;45295;-71
2023/07/17 15:57:40;;;;;;;;;0.00;0.00;;;;;-145.45;100.00;57426.63;4911908;28;45282;-71
2023/07/17 16:00:06;;;;;;;;;2.50;1.00;;;;;-145.45;100.00;57426.63;4918029;28;45279;-71
2023/07/17 16:02:31;;;;;;;;;1.40;0.20;;;;;-145.45;100.00;57426.63;4913380;28;45454;-70
2023/07/17 16:04:56;;;;;;;;;1.75;1.75;;;;;-145.45;100.00;57426.63;4918393;28;45392;-70
2023/07/17 16:07:22;;;;;;;;;2.00;0.75;;;;;-145.45;100.00;57426.63;4918686;28;46809;-71
2023/07/17 16:09:47;;;;;;;;;0.00;0.00;;;;;-145.45;100.00;57426.63;4919751;28;45266;-71
2023/07/17 16:12:12;;;;;;;;;1.00;0.00;;;;;-145.45;100.00;57426.63;4917359;28;45464;-71
2023/07/17 16:14:43;;;;;;;;;3.25;2.00;;;;;-145.45;100.00;57426.63;4919849;28;45914;-71
2023/07/17 16:17:10;;;;;;;;;0.20;0.20;;;;;-145.45;100.00;57426.63;4918946;28;48341;-71
2023/07/17 16:19:38;;;;;;;;;1.40;1.40;;;;;-145.45;100.00;57426.63;4920195;28;45818;-71
2023/07/17 16:22:06;;;;;;;;;0.80;0.80;;;;;-145.45;100.00;57426.63;4917593;28;45461;-71
2023/07/17 16:24:32;;;;;;;;;2.00;1.60;;;;;-145.45;100.00;57426.63;4915254;28;45300;-71
2023/07/17 16:26:57;;;;;;;;;0.25;0.25;;;;;-145.45;100.00;57426.63;4919280;28;45424;-71
2023/07/17 16:29:23;;;;;;;;;1.75;1.75;;;;;-145.45;100.00;57426.63;4916474;28;45288;-71
2023/07/17 16:31:48;;;;;;;;;0.25;0.25;;;;;-145.45;100.00;57426.63;4919890;28;45338;-71
2023/07/17 16:34:13;;;;;;;;;1.00;1.00;;;;;-145.45;100.00;57426.63;4920476;28;55395;-70
2023/07/17 16:36:40;;;;;;;;;0.25;0.25;;;;;-145.45;100.00;57426.63;4919347;28;46744;-71
2023/07/17 16:39:06;;;;;;;;;2.60;0.80;;;;;-145.45;100.00;57426.63;4915186;28;45389;-71
2023/07/17 16:41:31;;;;;;;;;1.00;1.00;;;;;-145.45;100.00;57426.63;4921935;28;45551;-71
2023/07/17 16:43:56;;;;;;;;;1.50;0.50;;;;;-145.45;100.00;57426.63;4920376;28;46221;-71
2023/07/17 16:46:22;;;;;;;;;2.50;2.25;;;;;-145.45;100.00;57426.63;4920576;28;54547;-72
2023/07/17 16:48:47;;;;;;;;;2.00;0.25;;;;;-145.45;100.00;57426.63;4915441;28;45378;-71
2023/07/17 16:51:12;;;;;;;;;0.50;0.50;;;;;-145.45;100.00;57426.63;4921840;28;45485;-71
2023/07/17 16:53:38;;;;;;;;;1.25;1.25;;;;;-145.45;100.00;57426.63;4916953;28;45465;-71
2023/07/17 16:56:03;;;;;;;;;2.00;2.00;;;;;-145.45;100.00;57426.63;4922071;28;45273;-71
2023/07/17 16:58:28;;;;;;;;;2.00;2.00;;;;;-145.45;100.00;57426.63;4912255;28;45246;-71
2023/07/17 17:00:54;;;;;;;;;1.25;1.25;;;;;-145.45;100.00;57426.63;4916140;28;45474;-69
2023/07/17 17:03:19;;;;;;;;;0.50;0.50;;;;;-145.45;100.00;57426.63;4920326;28;51876;-70
2023/07/17 17:05:45;;;;;;;;;1.25;1.25;;;;;-145.45;100.00;57426.63;4920553;28;46540;-70
2023/07/17 17:08:10;;;;;;;;;2.00;1.25;;;;;-145.45;100.00;57426.63;4911443;28;45395;-70
2023/07/17 17:10:35;;;;;;;;;4.75;4.75;;;;;-145.45;100.00;57426.63;4921439;28;45631;-70
2023/07/17 17:13:01;;;;;;;;;5.25;3.25;;;;;-145.45;100.00;57426.63;4919569;28;45386;-69
2023/07/17 17:15:28;;;;;;;;;1.25;1.25;;;;;-145.45;100.00;57426.63;4917530;28;46552;-69
2023/07/17 17:17:54;;;;;;;;;2.60;2.60;;;;;-145.45;100.00;57426.63;4915724;28;45731;-70
2023/07/17 17:20:20;;;;;;;;;3.50;3.50;;;;;-145.45;100.00;57426.63;4917830;28;45188;-71
2023/07/17 17:22:50;;;;;;;;;4.80;3.60;;;;;-145.45;100.00;57426.63;4918306;28;45279;-71
2023/07/17 17:25:16;;;;;;;;;2.80;2.80;;;;;-145.45;100.00;57426.63;4918511;28;45506;-70
2023/07/17 17:27:42;;;;;;;;;3.40;3.40;;;;;-145.45;100.00;57426.63;4921065;28;45243;-71
2023/07/17 17:30:08;;;;;;;;;4.75;3.00;;;;;-145.45;100.00;57426.63;4915648;28;45449;-71
2023/07/17 17:32:34;;;;;;;;;6.25;4.50;;;;;-145.45;100.00;57426.63;4913048;28;47002;-71
2023/07/17 17:34:59;;;;;;;;;2.00;2.00;;;;;-145.45;100.00;57426.63;4914921;28;47906;-71
2023/07/17 17:37:24;;;;;;;;;3.00;2.50;;;;;-145.45;100.00;57426.63;4918527;28;45440;-71
2023/07/17 17:39:50;;;;;;;;;2.00;2.00;;;;;-145.45;100.00;57426.63;4917623;28;45619;-72
2023/07/17 17:42:15;;;;;;;;;1.00;1.00;;;;;-145.45;100.00;57426.63;4919773;28;45392;-70
2023/07/17 17:44:41;;;;;;;;;1.75;1.75;;;;;-145.45;100.00;57426.63;4918351;28;45470;-71
2023/07/17 17:47:07;;;;;;;;;3.80;1.20;;;;;-145.45;100.00;57426.63;4917827;28;45389;-71
2023/07/17 17:49:32;;;;;;;;;1.25;1.25;;;;;-145.45;100.00;57426.63;4912600;28;45391;-72
2023/07/17 17:51:57;;;;;;;;;3.25;2.25;;;;;-145.45;100.00;57426.63;4916258;28;45322;-71